sensor_id;sensor_type;location;lat;lon;timestamp;P1;durP1;ratioP1;P2;durP2;ratioP2
12838;SDS011;6486;51.034;5.262;2024-01-15T00:01:58;3.47;;;1.90;;
12838;SDS011;6486;51.034;5.262;2024-01-15T00:04:23;2.93;;;1.80;;
12838;SDS011;6486;51.034;5.262;2024-01-15T00:06:49;4.60;;;2.03;;
12838;SDS011;6486;51.034;5.262;2024-01-15T00:09:15;2.90;;;1.53;;
12838;SDS011;6486;51.034;5.262;2024-01-15T00:11:41;3.23;;;2.07;;
12838;SDS011;6486;51.034;5.262;2024-01-15T00:14:08;2.83;;;1.83;;
12838;SDS011;6486;51.034;5.262;2024-01-15T00:16:33;5.73;;;2.97;;
12838;SDS011;6486;51.034;5.262;2024-01-15T00:18:59;4.40;;;1.93;;
12838;SDS011;6486;51.034;5.262;2024-01-15T00:21:25;3.53;;;1.93;;
12838;SDS011;6486;51.034;5.262;2024-01-15T00:23:50;3.53;;;1.77;;
12838;SDS011;6486;51.034;5.262;2024-01-15T00:26:16;2.97;;;2.03;;
12838;SDS011;6486;51.034;5.262;2024-01-15T00:28:42;2.30;;;1.60;;
12838;SDS011;6486;51.034;5.262;2024-01-15T00:31:07;3.97;;;2.30;;
12838;SDS011;6486;51.034;5.262;2024-01-15T00:33:33;3.00;;;1.97;;
12838;SDS011;6486;51.034;5.262;2024-01-15T00:35:59;4.90;;;2.63;;
12838;SDS011;6486;51.034;5.262;2024-01-15T00:38:24;5.70;;;1.97;;
12838;SDS011;6486;51.034;5.262;2024-01-15T00:40:50;4.40;;;2.17;;
12838;SDS011;6486;51.034;5.262;2024-01-15T00:43:16;3.53;;;2.07;;
12838;SDS011;6486;51.034;5.262;2024-01-15T00:45:44;3.97;;;2.20;;
12838;SDS011;6486;51.034;5.262;2024-01-15T00:48:10;3.30;;;2.13;;
12838;SDS011;6486;51.034;5.262;2024-01-15T00:50:36;3.87;;;1.80;;
12838;SDS011;6486;51.034;5.262;2024-01-15T00:53:01;3.63;;;2.20;;
12838;SDS011;6486;51.034;5.262;2024-01-15T00:55:28;1.90;;;1.40;;
12838;SDS011;6486;51.034;5.262;2024-01-15T00:57:54;2.63;;;1.80;;
12838;SDS011;6486;51.034;5.262;2024-01-15T01:00:20;2.77;;;1.80;;
12838;SDS011;6486;51.034;5.262;2024-01-15T01:02:46;2.93;;;2.07;;
12838;SDS011;6486;51.034;5.262;2024-01-15T01:05:12;2.10;;;1.63;;
12838;SDS011;6486;51.034;5.262;2024-01-15T01:07:37;3.00;;;1.63;;
12838;SDS011;6486;51.034;5.262;2024-01-15T01:10:03;2.83;;;1.67;;
12838;SDS011;6486;51.034;5.262;2024-01-15T01:12:29;3.13;;;1.53;;
12838;SDS011;6486;51.034;5.262;2024-01-15T01:14:55;5.20;;;2.03;;
12838;SDS011;6486;51.034;5.262;2024-01-15T01:17:21;2.03;;;1.43;;
12838;SDS011;6486;51.034;5.262;2024-01-15T01:19:47;3.27;;;2.20;;
12838;SDS011;6486;51.034;5.262;2024-01-15T01:22:12;4.47;;;1.90;;
12838;SDS011;6486;51.034;5.262;2024-01-15T01:24:38;4.43;;;2.00;;
12838;SDS011;6486;51.034;5.262;2024-01-15T01:27:04;3.03;;;1.40;;
12838;SDS011;6486;51.034;5.262;2024-01-15T01:29:29;2.13;;;1.13;;
12838;SDS011;6486;51.034;5.262;2024-01-15T01:31:55;3.97;;;1.63;;
12838;SDS011;6486;51.034;5.262;2024-01-15T01:34:21;2.43;;;2.13;;
12838;SDS011;6486;51.034;5.262;2024-01-15T01:36:47;2.90;;;1.93;;
12838;SDS011;6486;51.034;5.262;2024-01-15T01:39:13;2.87;;;2.13;;
12838;SDS011;6486;51.034;5.262;2024-01-15T01:41:39;1.57;;;1.37;;
12838;SDS011;6486;51.034;5.262;2024-01-15T01:44:05;2.20;;;1.50;;
12838;SDS011;6486;51.034;5.262;2024-01-15T01:46:32;1.93;;;1.37;;
12838;SDS011;6486;51.034;5.262;2024-01-15T01:48:59;3.90;;;2.40;;
12838;SDS011;6486;51.034;5.262;2024-01-15T01:51:30;2.53;;;1.73;;
12838;SDS011;6486;51.034;5.262;2024-01-15T01:53:56;1.60;;;1.50;;
12838;SDS011;6486;51.034;5.262;2024-01-15T01:56:22;5.33;;;1.60;;
12838;SDS011;6486;51.034;5.262;2024-01-15T01:58:48;2.00;;;1.23;;
12838;SDS011;6486;51.034;5.262;2024-01-15T02:01:15;2.13;;;1.40;;
12838;SDS011;6486;51.034;5.262;2024-01-15T02:03:41;3.77;;;1.63;;
12838;SDS011;6486;51.034;5.262;2024-01-15T02:06:06;2.90;;;1.83;;
12838;SDS011;6486;51.034;5.262;2024-01-15T02:08:33;1.43;;;1.13;;
12838;SDS011;6486;51.034;5.262;2024-01-15T02:10:59;2.03;;;1.13;;
12838;SDS011;6486;51.034;5.262;2024-01-15T02:13:25;3.57;;;2.03;;
12838;SDS011;6486;51.034;5.262;2024-01-15T02:15:51;3.17;;;1.80;;
12838;SDS011;6486;51.034;5.262;2024-01-15T02:18:17;3.57;;;1.60;;
12838;SDS011;6486;51.034;5.262;2024-01-15T02:20:43;3.57;;;2.10;;
12838;SDS011;6486;51.034;5.262;2024-01-15T02:23:09;3.33;;;1.87;;
12838;SDS011;6486;51.034;5.262;2024-01-15T02:25:39;2.27;;;1.77;;
12838;SDS011;6486;51.034;5.262;2024-01-15T02:28:12;3.83;;;2.17;;
12838;SDS011;6486;51.034;5.262;2024-01-15T02:30:41;2.13;;;1.33;;
12838;SDS011;6486;51.034;5.262;2024-01-15T02:33:07;1.43;;;1.10;;
12838;SDS011;6486;51.034;5.262;2024-01-15T02:35:34;2.00;;;1.50;;
12838;SDS011;6486;51.034;5.262;2024-01-15T02:38:03;2.93;;;1.50;;
12838;SDS011;6486;51.034;5.262;2024-01-15T02:40:30;2.47;;;1.30;;
12838;SDS011;6486;51.034;5.262;2024-01-15T02:42:56;1.70;;;1.60;;
12838;SDS011;6486;51.034;5.262;2024-01-15T02:45:22;1.73;;;1.10;;
12838;SDS011;6486;51.034;5.262;2024-01-15T02:47:48;3.77;;;2.10;;
12838;SDS011;6486;51.034;5.262;2024-01-15T02:50:15;2.47;;;1.63;;
12838;SDS011;6486;51.034;5.262;2024-01-15T02:52:43;1.40;;;1.30;;
12838;SDS011;6486;51.034;5.262;2024-01-15T02:55:09;1.90;;;1.37;;
12838;SDS011;6486;51.034;5.262;2024-01-15T02:57:35;2.83;;;1.30;;
12838;SDS011;6486;51.034;5.262;2024-01-15T03:00:01;5.23;;;2.27;;
12838;SDS011;6486;51.034;5.262;2024-01-15T03:02:27;2.97;;;1.80;;
12838;SDS011;6486;51.034;5.262;2024-01-15T03:04:52;1.90;;;1.37;;
12838;SDS011;6486;51.034;5.262;2024-01-15T03:07:18;7.97;;;1.27;;
12838;SDS011;6486;51.034;5.262;2024-01-15T03:09:44;2.37;;;1.60;;
12838;SDS011;6486;51.034;5.262;2024-01-15T03:12:09;2.53;;;1.47;;
12838;SDS011;6486;51.034;5.262;2024-01-15T03:14:36;1.87;;;1.67;;
12838;SDS011;6486;51.034;5.262;2024-01-15T03:17:02;2.10;;;1.37;;
12838;SDS011;6486;51.034;5.262;2024-01-15T03:19:27;3.53;;;2.13;;
12838;SDS011;6486;51.034;5.262;2024-01-15T03:21:53;1.77;;;1.17;;
12838;SDS011;6486;51.034;5.262;2024-01-15T03:24:20;2.23;;;1.47;;
12838;SDS011;6486;51.034;5.262;2024-01-15T03:26:45;4.50;;;1.97;;
12838;SDS011;6486;51.034;5.262;2024-01-15T03:29:11;2.77;;;1.40;;
12838;SDS011;6486;51.034;5.262;2024-01-15T03:31:37;2.30;;;1.77;;
12838;SDS011;6486;51.034;5.262;2024-01-15T03:34:02;1.90;;;1.30;;
12838;SDS011;6486;51.034;5.262;2024-01-15T03:36:28;1.20;;;0.80;;
12838;SDS011;6486;51.034;5.262;2024-01-15T03:38:54;2.03;;;1.83;;
12838;SDS011;6486;51.034;5.262;2024-01-15T03:41:19;2.67;;;1.50;;
12838;SDS011;6486;51.034;5.262;2024-01-15T03:43:45;1.53;;;1.10;;
12838;SDS011;6486;51.034;5.262;2024-01-15T03:46:11;1.37;;;1.23;;
12838;SDS011;6486;51.034;5.262;2024-01-15T03:48:37;2.13;;;1.07;;
12838;SDS011;6486;51.034;5.262;2024-01-15T03:51:03;1.20;;;1.10;;
12838;SDS011;6486;51.034;5.262;2024-01-15T03:53:29;1.17;;;1.07;;
12838;SDS011;6486;51.034;5.262;2024-01-15T03:55:55;1.27;;;1.17;;
12838;SDS011;6486;51.034;5.262;2024-01-15T03:58:20;1.13;;;1.00;;
12838;SDS011;6486;51.034;5.262;2024-01-15T04:00:46;4.50;;;1.23;;
12838;SDS011;6486;51.034;5.262;2024-01-15T04:03:11;2.53;;;0.97;;
12838;SDS011;6486;51.034;5.262;2024-01-15T04:05:37;1.03;;;0.90;;
12838;SDS011;6486;51.034;5.262;2024-01-15T04:08:03;1.00;;;0.90;;
12838;SDS011;6486;51.034;5.262;2024-01-15T04:10:29;1.50;;;0.97;;
12838;SDS011;6486;51.034;5.262;2024-01-15T04:12:55;1.97;;;1.20;;
12838;SDS011;6486;51.034;5.262;2024-01-15T04:15:21;1.17;;;0.63;;
12838;SDS011;6486;51.034;5.262;2024-01-15T04:17:46;0.67;;;0.67;;
12838;SDS011;6486;51.034;5.262;2024-01-15T04:20:12;0.90;;;0.90;;
12838;SDS011;6486;51.034;5.262;2024-01-15T04:22:38;1.20;;;0.90;;
12838;SDS011;6486;51.034;5.262;2024-01-15T04:25:03;2.00;;;0.80;;
12838;SDS011;6486;51.034;5.262;2024-01-15T04:27:30;0.90;;;0.90;;
12838;SDS011;6486;51.034;5.262;2024-01-15T04:29:55;0.90;;;0.83;;
12838;SDS011;6486;51.034;5.262;2024-01-15T04:32:21;0.93;;;0.77;;
12838;SDS011;6486;51.034;5.262;2024-01-15T04:34:47;1.00;;;0.90;;
12838;SDS011;6486;51.034;5.262;2024-01-15T04:37:15;1.60;;;1.03;;
12838;SDS011;6486;51.034;5.262;2024-01-15T04:39:41;1.07;;;0.77;;
12838;SDS011;6486;51.034;5.262;2024-01-15T04:42:07;0.83;;;0.70;;
12838;SDS011;6486;51.034;5.262;2024-01-15T04:44:33;1.23;;;0.73;;
12838;SDS011;6486;51.034;5.262;2024-01-15T04:46:58;1.60;;;1.07;;
12838;SDS011;6486;51.034;5.262;2024-01-15T04:49:24;0.97;;;0.97;;
12838;SDS011;6486;51.034;5.262;2024-01-15T04:51:52;1.67;;;0.67;;
12838;SDS011;6486;51.034;5.262;2024-01-15T04:54:18;1.03;;;0.77;;
12838;SDS011;6486;51.034;5.262;2024-01-15T04:56:44;1.17;;;0.93;;
12838;SDS011;6486;51.034;5.262;2024-01-15T04:59:10;2.00;;;1.10;;
12838;SDS011;6486;51.034;5.262;2024-01-15T05:01:36;1.50;;;1.20;;
12838;SDS011;6486;51.034;5.262;2024-01-15T05:04:02;0.80;;;0.77;;
12838;SDS011;6486;51.034;5.262;2024-01-15T05:06:27;0.60;;;0.60;;
12838;SDS011;6486;51.034;5.262;2024-01-15T05:08:53;0.80;;;0.80;;
12838;SDS011;6486;51.034;5.262;2024-01-15T05:11:19;0.77;;;0.63;;
12838;SDS011;6486;51.034;5.262;2024-01-15T05:13:45;0.57;;;0.40;;
12838;SDS011;6486;51.034;5.262;2024-01-15T05:16:10;0.73;;;0.57;;
12838;SDS011;6486;51.034;5.262;2024-01-15T05:18:36;0.90;;;0.80;;
12838;SDS011;6486;51.034;5.262;2024-01-15T05:21:05;1.13;;;0.70;;
12838;SDS011;6486;51.034;5.262;2024-01-15T05:23:31;0.73;;;0.73;;
12838;SDS011;6486;51.034;5.262;2024-01-15T05:25:56;0.70;;;0.70;;
12838;SDS011;6486;51.034;5.262;2024-01-15T05:28:22;1.53;;;0.40;;
12838;SDS011;6486;51.034;5.262;2024-01-15T05:30:48;0.53;;;0.53;;
12838;SDS011;6486;51.034;5.262;2024-01-15T05:33:15;0.83;;;0.63;;
12838;SDS011;6486;51.034;5.262;2024-01-15T05:35:41;0.40;;;0.37;;
12838;SDS011;6486;51.034;5.262;2024-01-15T05:38:07;1.60;;;0.50;;
12838;SDS011;6486;51.034;5.262;2024-01-15T05:40:33;0.40;;;0.40;;
12838;SDS011;6486;51.034;5.262;2024-01-15T05:42:58;0.90;;;0.70;;
12838;SDS011;6486;51.034;5.262;2024-01-15T05:45:25;0.37;;;0.30;;
12838;SDS011;6486;51.034;5.262;2024-01-15T05:47:51;1.37;;;0.37;;
12838;SDS011;6486;51.034;5.262;2024-01-15T05:50:17;0.60;;;0.60;;
12838;SDS011;6486;51.034;5.262;2024-01-15T05:52:43;0.40;;;0.37;;
12838;SDS011;6486;51.034;5.262;2024-01-15T05:55:09;1.17;;;0.83;;
12838;SDS011;6486;51.034;5.262;2024-01-15T05:57:35;0.53;;;0.50;;
12838;SDS011;6486;51.034;5.262;2024-01-15T06:00:01;1.80;;;0.60;;
12838;SDS011;6486;51.034;5.262;2024-01-15T06:02:27;0.50;;;0.50;;
12838;SDS011;6486;51.034;5.262;2024-01-15T06:04:53;2.73;;;0.87;;
12838;SDS011;6486;51.034;5.262;2024-01-15T06:07:19;0.60;;;0.50;;
12838;SDS011;6486;51.034;5.262;2024-01-15T06:09:44;0.50;;;0.50;;
12838;SDS011;6486;51.034;5.262;2024-01-15T06:12:10;0.53;;;0.53;;
12838;SDS011;6486;51.034;5.262;2024-01-15T06:14:36;1.03;;;0.70;;
12838;SDS011;6486;51.034;5.262;2024-01-15T06:17:01;0.57;;;0.50;;
12838;SDS011;6486;51.034;5.262;2024-01-15T06:19:27;1.23;;;1.00;;
12838;SDS011;6486;51.034;5.262;2024-01-15T06:21:53;0.53;;;0.53;;
12838;SDS011;6486;51.034;5.262;2024-01-15T06:24:19;0.90;;;0.40;;
12838;SDS011;6486;51.034;5.262;2024-01-15T06:26:46;0.83;;;0.60;;
12838;SDS011;6486;51.034;5.262;2024-01-15T06:29:12;0.63;;;0.57;;
12838;SDS011;6486;51.034;5.262;2024-01-15T06:31:37;0.67;;;0.57;;
12838;SDS011;6486;51.034;5.262;2024-01-15T06:34:03;0.87;;;0.53;;
12838;SDS011;6486;51.034;5.262;2024-01-15T06:36:29;0.70;;;0.70;;
12838;SDS011;6486;51.034;5.262;2024-01-15T06:38:54;1.10;;;0.77;;
12838;SDS011;6486;51.034;5.262;2024-01-15T06:41:21;0.73;;;0.73;;
12838;SDS011;6486;51.034;5.262;2024-01-15T06:43:46;1.17;;;1.07;;
12838;SDS011;6486;51.034;5.262;2024-01-15T06:46:13;0.70;;;0.53;;
12838;SDS011;6486;51.034;5.262;2024-01-15T06:48:48;1.07;;;0.70;;
12838;SDS011;6486;51.034;5.262;2024-01-15T06:51:15;0.83;;;0.70;;
12838;SDS011;6486;51.034;5.262;2024-01-15T06:53:41;0.70;;;0.60;;
12838;SDS011;6486;51.034;5.262;2024-01-15T06:56:06;0.50;;;0.50;;
12838;SDS011;6486;51.034;5.262;2024-01-15T06:58:33;1.17;;;1.00;;
12838;SDS011;6486;51.034;5.262;2024-01-15T07:00:59;1.63;;;1.00;;
12838;SDS011;6486;51.034;5.262;2024-01-15T07:03:24;0.40;;;0.40;;
12838;SDS011;6486;51.034;5.262;2024-01-15T07:05:50;0.53;;;0.40;;
12838;SDS011;6486;51.034;5.262;2024-01-15T07:08:16;1.33;;;0.70;;
12838;SDS011;6486;51.034;5.262;2024-01-15T07:10:42;0.83;;;0.73;;
12838;SDS011;6486;51.034;5.262;2024-01-15T07:13:08;2.13;;;0.53;;
12838;SDS011;6486;51.034;5.262;2024-01-15T07:15:34;1.17;;;0.70;;
12838;SDS011;6486;51.034;5.262;2024-01-15T07:17:59;0.80;;;0.80;;
12838;SDS011;6486;51.034;5.262;2024-01-15T07:20:25;0.70;;;0.70;;
12838;SDS011;6486;51.034;5.262;2024-01-15T07:22:51;0.80;;;0.60;;
12838;SDS011;6486;51.034;5.262;2024-01-15T07:25:16;0.77;;;0.77;;
12838;SDS011;6486;51.034;5.262;2024-01-15T07:27:42;2.93;;;0.93;;
12838;SDS011;6486;51.034;5.262;2024-01-15T07:30:10;2.43;;;0.57;;
12838;SDS011;6486;51.034;5.262;2024-01-15T07:32:36;1.17;;;0.80;;
12838;SDS011;6486;51.034;5.262;2024-01-15T07:35:02;0.93;;;0.80;;
12838;SDS011;6486;51.034;5.262;2024-01-15T07:37:28;0.63;;;0.63;;
12838;SDS011;6486;51.034;5.262;2024-01-15T07:39:54;1.03;;;0.97;;
12838;SDS011;6486;51.034;5.262;2024-01-15T07:42:20;0.67;;;0.67;;
12838;SDS011;6486;51.034;5.262;2024-01-15T07:44:45;1.63;;;0.80;;
12838;SDS011;6486;51.034;5.262;2024-01-15T07:47:12;1.70;;;0.83;;
12838;SDS011;6486;51.034;5.262;2024-01-15T07:49:38;0.70;;;0.70;;
12838;SDS011;6486;51.034;5.262;2024-01-15T07:52:03;1.67;;;1.07;;
12838;SDS011;6486;51.034;5.262;2024-01-15T07:54:30;1.07;;;0.57;;
12838;SDS011;6486;51.034;5.262;2024-01-15T07:57:00;0.57;;;0.50;;
12838;SDS011;6486;51.034;5.262;2024-01-15T07:59:27;0.73;;;0.50;;
12838;SDS011;6486;51.034;5.262;2024-01-15T08:01:53;0.70;;;0.70;;
12838;SDS011;6486;51.034;5.262;2024-01-15T08:04:19;0.77;;;0.40;;
12838;SDS011;6486;51.034;5.262;2024-01-15T08:06:45;0.97;;;0.60;;
12838;SDS011;6486;51.034;5.262;2024-01-15T08:09:11;0.70;;;0.70;;
12838;SDS011;6486;51.034;5.262;2024-01-15T08:11:40;0.50;;;0.50;;
12838;SDS011;6486;51.034;5.262;2024-01-15T08:14:07;0.43;;;0.43;;
12838;SDS011;6486;51.034;5.262;2024-01-15T08:16:33;0.63;;;0.40;;
12838;SDS011;6486;51.034;5.262;2024-01-15T08:18:59;0.33;;;0.33;;
12838;SDS011;6486;51.034;5.262;2024-01-15T08:21:25;0.80;;;0.53;;
12838;SDS011;6486;51.034;5.262;2024-01-15T08:23:50;1.77;;;0.80;;
12838;SDS011;6486;51.034;5.262;2024-01-15T08:26:17;0.40;;;0.37;;
12838;SDS011;6486;51.034;5.262;2024-01-15T08:28:42;1.33;;;0.40;;
12838;SDS011;6486;51.034;5.262;2024-01-15T08:31:08;0.47;;;0.47;;
12838;SDS011;6486;51.034;5.262;2024-01-15T08:33:34;0.40;;;0.33;;
12838;SDS011;6486;51.034;5.262;2024-01-15T08:36:01;0.50;;;0.50;;
12838;SDS011;6486;51.034;5.262;2024-01-15T08:38:26;0.40;;;0.40;;
12838;SDS011;6486;51.034;5.262;2024-01-15T08:40:52;2.57;;;0.30;;
12838;SDS011;6486;51.034;5.262;2024-01-15T08:43:18;2.87;;;0.40;;
12838;SDS011;6486;51.034;5.262;2024-01-15T08:45:44;0.60;;;0.60;;
12838;SDS011;6486;51.034;5.262;2024-01-15T08:48:10;0.63;;;0.30;;
12838;SDS011;6486;51.034;5.262;2024-01-15T08:50:36;0.37;;;0.30;;
12838;SDS011;6486;51.034;5.262;2024-01-15T08:53:01;0.30;;;0.30;;
12838;SDS011;6486;51.034;5.262;2024-01-15T08:55:27;0.63;;;0.30;;
12838;SDS011;6486;51.034;5.262;2024-01-15T08:57:53;0.40;;;0.40;;
12838;SDS011;6486;51.034;5.262;2024-01-15T09:00:19;0.50;;;0.50;;
12838;SDS011;6486;51.034;5.262;2024-01-15T09:02:45;1.20;;;0.20;;
12838;SDS011;6486;51.034;5.262;2024-01-15T09:05:10;0.40;;;0.40;;
12838;SDS011;6486;51.034;5.262;2024-01-15T09:07:36;0.83;;;0.53;;
12838;SDS011;6486;51.034;5.262;2024-01-15T09:10:02;1.13;;;0.40;;
12838;SDS011;6486;51.034;5.262;2024-01-15T09:12:28;0.40;;;0.40;;
12838;SDS011;6486;51.034;5.262;2024-01-15T09:14:54;0.53;;;0.37;;
12838;SDS011;6486;51.034;5.262;2024-01-15T09:17:20;0.60;;;0.30;;
12838;SDS011;6486;51.034;5.262;2024-01-15T09:19:49;0.23;;;0.23;;
12838;SDS011;6486;51.034;5.262;2024-01-15T09:22:16;0.90;;;0.47;;
12838;SDS011;6486;51.034;5.262;2024-01-15T09:24:45;0.97;;;0.30;;
12838;SDS011;6486;51.034;5.262;2024-01-15T09:27:11;1.63;;;0.47;;
12838;SDS011;6486;51.034;5.262;2024-01-15T09:29:36;0.73;;;0.73;;
12838;SDS011;6486;51.034;5.262;2024-01-15T09:32:05;2.83;;;0.60;;
12838;SDS011;6486;51.034;5.262;2024-01-15T09:34:32;0.40;;;0.40;;
12838;SDS011;6486;51.034;5.262;2024-01-15T09:39:28;1.97;;;0.40;;
12838;SDS011;6486;51.034;5.262;2024-01-15T09:41:53;1.20;;;0.50;;
12838;SDS011;6486;51.034;5.262;2024-01-15T09:44:20;0.30;;;0.30;;
12838;SDS011;6486;51.034;5.262;2024-01-15T09:46:46;0.47;;;0.27;;
12838;SDS011;6486;51.034;5.262;2024-01-15T09:49:15;0.80;;;0.70;;
12838;SDS011;6486;51.034;5.262;2024-01-15T09:51:41;1.70;;;0.30;;
12838;SDS011;6486;51.034;5.262;2024-01-15T09:54:08;0.27;;;0.27;;
12838;SDS011;6486;51.034;5.262;2024-01-15T09:56:34;1.30;;;0.30;;
12838;SDS011;6486;51.034;5.262;2024-01-15T09:59:00;0.60;;;0.30;;
12838;SDS011;6486;51.034;5.262;2024-01-15T10:01:27;0.87;;;0.40;;
12838;SDS011;6486;51.034;5.262;2024-01-15T10:03:54;0.20;;;0.20;;
12838;SDS011;6486;51.034;5.262;2024-01-15T10:06:21;2.83;;;0.70;;
12838;SDS011;6486;51.034;5.262;2024-01-15T10:08:47;0.60;;;0.60;;
12838;SDS011;6486;51.034;5.262;2024-01-15T10:11:14;0.40;;;0.40;;
12838;SDS011;6486;51.034;5.262;2024-01-15T10:13:43;0.57;;;0.50;;
12838;SDS011;6486;51.034;5.262;2024-01-15T10:16:09;0.37;;;0.30;;
12838;SDS011;6486;51.034;5.262;2024-01-15T10:18:36;0.50;;;0.40;;
12838;SDS011;6486;51.034;5.262;2024-01-15T10:21:05;0.37;;;0.20;;
12838;SDS011;6486;51.034;5.262;2024-01-15T10:23:33;0.63;;;0.40;;
12838;SDS011;6486;51.034;5.262;2024-01-15T10:25:59;0.50;;;0.47;;
12838;SDS011;6486;51.034;5.262;2024-01-15T10:28:28;0.30;;;0.30;;
12838;SDS011;6486;51.034;5.262;2024-01-15T10:30:56;0.63;;;0.23;;
12838;SDS011;6486;51.034;5.262;2024-01-15T10:33:24;0.70;;;0.30;;
12838;SDS011;6486;51.034;5.262;2024-01-15T10:35:51;1.60;;;0.50;;
12838;SDS011;6486;51.034;5.262;2024-01-15T10:38:20;0.83;;;0.40;;
12838;SDS011;6486;51.034;5.262;2024-01-15T10:40:56;0.67;;;0.47;;
12838;SDS011;6486;51.034;5.262;2024-01-15T10:43:22;1.13;;;0.47;;
12838;SDS011;6486;51.034;5.262;2024-01-15T10:45:48;0.60;;;0.13;;
12838;SDS011;6486;51.034;5.262;2024-01-15T10:48:18;0.50;;;0.50;;
12838;SDS011;6486;51.034;5.262;2024-01-15T10:50:45;1.13;;;0.40;;
12838;SDS011;6486;51.034;5.262;2024-01-15T10:53:12;1.47;;;0.40;;
12838;SDS011;6486;51.034;5.262;2024-01-15T10:55:39;1.40;;;0.53;;
12838;SDS011;6486;51.034;5.262;2024-01-15T10:58:08;0.53;;;0.30;;
12838;SDS011;6486;51.034;5.262;2024-01-15T11:00:37;0.30;;;0.30;;
12838;SDS011;6486;51.034;5.262;2024-01-15T11:03:04;0.20;;;0.20;;
12838;SDS011;6486;51.034;5.262;2024-01-15T11:05:36;0.30;;;0.30;;
12838;SDS011;6486;51.034;5.262;2024-01-15T11:08:06;0.23;;;0.23;;
12838;SDS011;6486;51.034;5.262;2024-01-15T11:11:05;2.33;;;0.60;;
12838;SDS011;6486;51.034;5.262;2024-01-15T11:15:58;0.30;;;0.30;;
12838;SDS011;6486;51.034;5.262;2024-01-15T11:18:30;0.60;;;0.50;;
12838;SDS011;6486;51.034;5.262;2024-01-15T11:23:42;4.90;;;0.37;;
12838;SDS011;6486;51.034;5.262;2024-01-15T11:26:54;0.53;;;0.53;;
12838;SDS011;6486;51.034;5.262;2024-01-15T11:29:01;2.23;;;0.40;;
12838;SDS011;6486;51.034;5.262;2024-01-15T11:34:07;2.40;;;0.27;;
12838;SDS011;6486;51.034;5.262;2024-01-15T11:37:00;0.37;;;0.30;;
12838;SDS011;6486;51.034;5.262;2024-01-15T11:41:55;0.40;;;0.40;;
12838;SDS011;6486;51.034;5.262;2024-01-15T11:44:25;0.50;;;0.50;;
12838;SDS011;6486;51.034;5.262;2024-01-15T11:52:18;3.87;;;1.10;;
12838;SDS011;6486;51.034;5.262;2024-01-15T11:54:48;0.20;;;0.20;;
12838;SDS011;6486;51.034;5.262;2024-01-15T11:57:19;0.60;;;0.50;;
12838;SDS011;6486;51.034;5.262;2024-01-15T11:59:53;0.77;;;0.40;;
12838;SDS011;6486;51.034;5.262;2024-01-15T12:02:19;0.50;;;0.40;;
12838;SDS011;6486;51.034;5.262;2024-01-15T12:04:45;0.20;;;0.20;;
12838;SDS011;6486;51.034;5.262;2024-01-15T12:07:11;0.87;;;0.20;;
12838;SDS011;6486;51.034;5.262;2024-01-15T12:09:42;0.20;;;0.20;;
12838;SDS011;6486;51.034;5.262;2024-01-15T12:12:09;0.27;;;0.27;;
12838;SDS011;6486;51.034;5.262;2024-01-15T12:14:44;0.40;;;0.40;;
12838;SDS011;6486;51.034;5.262;2024-01-15T12:17:10;0.27;;;0.27;;
12838;SDS011;6486;51.034;5.262;2024-01-15T12:19:36;1.53;;;0.40;;
12838;SDS011;6486;51.034;5.262;2024-01-15T12:22:02;0.20;;;0.20;;
12838;SDS011;6486;51.034;5.262;2024-01-15T12:24:28;0.43;;;0.30;;
12838;SDS011;6486;51.034;5.262;2024-01-15T12:26:54;0.33;;;0.20;;
12838;SDS011;6486;51.034;5.262;2024-01-15T12:29:20;0.13;;;0.13;;
12838;SDS011;6486;51.034;5.262;2024-01-15T12:31:49;1.23;;;0.20;;
12838;SDS011;6486;51.034;5.262;2024-01-15T12:34:17;0.13;;;0.13;;
12838;SDS011;6486;51.034;5.262;2024-01-15T12:36:42;0.20;;;0.20;;
12838;SDS011;6486;51.034;5.262;2024-01-15T12:39:11;0.20;;;0.20;;
12838;SDS011;6486;51.034;5.262;2024-01-15T12:41:37;0.50;;;0.40;;
12838;SDS011;6486;51.034;5.262;2024-01-15T12:44:04;1.60;;;0.20;;
12838;SDS011;6486;51.034;5.262;2024-01-15T12:46:30;1.47;;;0.20;;
12838;SDS011;6486;51.034;5.262;2024-01-15T12:48:56;0.77;;;0.23;;
12838;SDS011;6486;51.034;5.262;2024-01-15T12:51:25;3.13;;;0.40;;
12838;SDS011;6486;51.034;5.262;2024-01-15T12:53:52;0.20;;;0.20;;
12838;SDS011;6486;51.034;5.262;2024-01-15T12:56:18;0.20;;;0.20;;
12838;SDS011;6486;51.034;5.262;2024-01-15T12:58:44;0.43;;;0.40;;
12838;SDS011;6486;51.034;5.262;2024-01-15T13:01:10;0.60;;;0.60;;
12838;SDS011;6486;51.034;5.262;2024-01-15T13:03:36;0.50;;;0.50;;
12838;SDS011;6486;51.034;5.262;2024-01-15T13:06:01;0.30;;;0.30;;
12838;SDS011;6486;51.034;5.262;2024-01-15T13:08:27;0.20;;;0.20;;
12838;SDS011;6486;51.034;5.262;2024-01-15T13:10:55;0.17;;;0.17;;
12838;SDS011;6486;51.034;5.262;2024-01-15T13:13:22;0.00;;;0.00;;
12838;SDS011;6486;51.034;5.262;2024-01-15T13:15:48;0.50;;;0.20;;
12838;SDS011;6486;51.034;5.262;2024-01-15T13:18:14;0.10;;;0.10;;
12838;SDS011;6486;51.034;5.262;2024-01-15T13:20:39;1.47;;;0.27;;
12838;SDS011;6486;51.034;5.262;2024-01-15T13:23:05;0.30;;;0.20;;
12838;SDS011;6486;51.034;5.262;2024-01-15T13:25:31;1.00;;;0.40;;
12838;SDS011;6486;51.034;5.262;2024-01-15T13:27:58;0.30;;;0.20;;
12838;SDS011;6486;51.034;5.262;2024-01-15T13:30:24;0.47;;;0.20;;
12838;SDS011;6486;51.034;5.262;2024-01-15T13:32:50;1.57;;;0.13;;
12838;SDS011;6486;51.034;5.262;2024-01-15T13:35:16;0.53;;;0.40;;
12838;SDS011;6486;51.034;5.262;2024-01-15T13:37:41;0.97;;;0.20;;
12838;SDS011;6486;51.034;5.262;2024-01-15T13:40:07;0.23;;;0.23;;
12838;SDS011;6486;51.034;5.262;2024-01-15T13:42:35;0.20;;;0.20;;
12838;SDS011;6486;51.034;5.262;2024-01-15T13:45:04;0.10;;;0.10;;
12838;SDS011;6486;51.034;5.262;2024-01-15T13:47:31;0.30;;;0.20;;
12838;SDS011;6486;51.034;5.262;2024-01-15T13:49:57;0.27;;;0.27;;
12838;SDS011;6486;51.034;5.262;2024-01-15T13:52:23;0.20;;;0.20;;
12838;SDS011;6486;51.034;5.262;2024-01-15T13:54:49;0.23;;;0.17;;
12838;SDS011;6486;51.034;5.262;2024-01-15T13:57:15;0.77;;;0.60;;
12838;SDS011;6486;51.034;5.262;2024-01-15T13:59:41;0.30;;;0.20;;
12838;SDS011;6486;51.034;5.262;2024-01-15T14:02:07;0.20;;;0.20;;
12838;SDS011;6486;51.034;5.262;2024-01-15T14:04:33;0.20;;;0.20;;
12838;SDS011;6486;51.034;5.262;2024-01-15T14:06:58;0.30;;;0.20;;
12838;SDS011;6486;51.034;5.262;2024-01-15T14:09:24;0.47;;;0.27;;
12838;SDS011;6486;51.034;5.262;2024-01-15T14:11:50;0.10;;;0.10;;
12838;SDS011;6486;51.034;5.262;2024-01-15T14:14:16;0.53;;;0.20;;
12838;SDS011;6486;51.034;5.262;2024-01-15T14:16:42;0.20;;;0.20;;
12838;SDS011;6486;51.034;5.262;2024-01-15T14:19:08;0.10;;;0.10;;
12838;SDS011;6486;51.034;5.262;2024-01-15T14:21:34;0.23;;;0.23;;
12838;SDS011;6486;51.034;5.262;2024-01-15T14:24:01;0.20;;;0.20;;
12838;SDS011;6486;51.034;5.262;2024-01-15T14:26:26;0.10;;;0.10;;
12838;SDS011;6486;51.034;5.262;2024-01-15T14:28:53;0.00;;;0.00;;
12838;SDS011;6486;51.034;5.262;2024-01-15T14:31:19;0.40;;;0.40;;
12838;SDS011;6486;51.034;5.262;2024-01-15T14:33:45;0.50;;;0.37;;
12838;SDS011;6486;51.034;5.262;2024-01-15T14:36:11;0.20;;;0.20;;
12838;SDS011;6486;51.034;5.262;2024-01-15T14:38:37;0.23;;;0.23;;
12838;SDS011;6486;51.034;5.262;2024-01-15T14:41:02;0.23;;;0.20;;
12838;SDS011;6486;51.034;5.262;2024-01-15T14:43:29;0.10;;;0.10;;
12838;SDS011;6486;51.034;5.262;2024-01-15T14:45:55;0.60;;;0.30;;
12838;SDS011;6486;51.034;5.262;2024-01-15T14:48:21;0.27;;;0.27;;
12838;SDS011;6486;51.034;5.262;2024-01-15T14:50:47;0.63;;;0.30;;
12838;SDS011;6486;51.034;5.262;2024-01-15T14:53:13;0.10;;;0.10;;
12838;SDS011;6486;51.034;5.262;2024-01-15T14:55:39;0.20;;;0.20;;
12838;SDS011;6486;51.034;5.262;2024-01-15T14:58:04;0.23;;;0.23;;
12838;SDS011;6486;51.034;5.262;2024-01-15T15:00:30;0.37;;;0.17;;
12838;SDS011;6486;51.034;5.262;2024-01-15T15:02:56;0.67;;;0.30;;
12838;SDS011;6486;51.034;5.262;2024-01-15T15:05:22;0.23;;;0.23;;
12838;SDS011;6486;51.034;5.262;2024-01-15T15:07:47;0.20;;;0.10;;
12838;SDS011;6486;51.034;5.262;2024-01-15T15:10:13;0.47;;;0.47;;
12838;SDS011;6486;51.034;5.262;2024-01-15T15:12:40;0.47;;;0.40;;
12838;SDS011;6486;51.034;5.262;2024-01-15T15:15:05;0.20;;;0.20;;